Time;durP1;ratioP1;P1;durP2;ratioP2;P2;SDS_P1;SDS_P2;PMS_P1;PMS_P2;Temp;Humidity;BMP_temperature;BMP_pressure;BME280_temperature;BME280_humidity;BME280_pressure;Samples;Min_cycle;Max_cycle;Signal;HPM_P1;HPM_P2
2023/01/07 00:01:37;;;;;;;9.98;6.15;;;13.10;83.30;;;;;;5106473;28;20023;-74
2023/01/07 00:04:05;;;;;;;10.48;5.90;;;13.10;83.40;;;;;;5110378;28;20062;-73
2023/01/07 00:06:34;;;;;;;10.35;5.88;;;13.10;83.50;;;;;;5085468;28;20106;-73
2023/01/07 00:09:00;;;;;;;10.45;5.95;;;13.10;83.50;;;;;;5113302;28;20020;-73
2023/01/07 00:11:31;;;;;;;11.25;5.60;;;13.10;83.50;;;;;;5109977;28;20024;-73
2023/01/07 00:13:58;;;;;;;10.43;5.97;;;13.10;83.60;;;;;;5116200;28;20034;-73
2023/01/07 00:16:27;;;;;;;8.55;5.40;;;13.10;83.60;;;;;;5094755;28;20116;-73
2023/01/07 00:18:55;;;;;;;10.02;5.53;;;13.00;83.60;;;;;;5116138;28;20024;-73
2023/01/07 00:21:23;;;;;;;9.70;5.45;;;13.00;83.60;;;;;;5108286;28;20026;-73
2023/01/07 00:23:52;;;;;;;9.82;5.78;;;13.00;83.70;;;;;;5114231;28;20023;-73
2023/01/07 00:26:20;;;;;;;9.98;5.60;;;13.10;83.70;;;;;;5105362;28;20038;-73
2023/01/07 00:28:48;;;;;;;9.43;5.72;;;13.00;83.70;;;;;;5113684;28;20115;-73
2023/01/07 00:31:26;;;;;;;9.02;4.88;;;13.00;83.70;;;;;;5107919;28;20028;-73
2023/01/07 00:36:20;;;;;;;9.18;5.43;;;13.00;83.70;;;;;;5106286;28;20074;-73
2023/01/07 00:38:46;;;;;;;9.82;5.95;;;13.00;83.60;;;;;;5113484;28;20039;-73
2023/01/07 00:41:11;;;;;;;8.48;5.57;;;12.90;83.60;;;;;;5108247;28;20074;-73
2023/01/07 00:43:37;;;;;;;8.85;5.80;;;13.00;83.70;;;;;;5112932;28;20447;-73
2023/01/07 00:46:03;;;;;;;8.48;5.25;;;13.00;83.70;;;;;;5110599;28;20114;-73
2023/01/07 00:48:29;;;;;;;10.07;5.40;;;12.90;83.60;;;;;;5106971;28;20411;-73
2023/01/07 00:50:55;;;;;;;10.13;5.55;;;12.90;83.60;;;;;;5113829;28;20024;-73
2023/01/07 00:53:21;;;;;;;9.02;5.15;;;12.90;83.60;;;;;;5111834;28;20028;-74
2023/01/07 00:55:48;;;;;;;11.00;5.28;;;12.90;83.60;;;;;;5117824;28;20448;-74
2023/01/07 00:58:17;;;;;;;8.35;5.22;;;12.90;83.50;;;;;;5089409;28;20028;-74
2023/01/07 01:00:43;;;;;;;9.55;6.05;;;12.90;83.60;;;;;;5118542;28;20405;-74
2023/01/07 01:03:10;;;;;;;9.32;5.63;;;12.90;83.50;;;;;;5109545;28;20023;-74
2023/01/07 01:05:36;;;;;;;9.82;5.72;;;12.90;83.40;;;;;;5106415;28;20028;-74
2023/01/07 01:08:02;;;;;;;9.60;5.72;;;12.90;83.40;;;;;;5115026;28;20383;-74
2023/01/07 01:10:28;;;;;;;8.95;5.95;;;12.90;83.40;;;;;;5110883;28;20023;-74
2023/01/07 01:12:54;;;;;;;8.80;5.47;;;12.90;83.30;;;;;;5093342;28;20024;-74
2023/01/07 01:15:20;;;;;;;8.70;5.45;;;12.90;83.30;;;;;;5103081;28;20047;-74
2023/01/07 01:17:46;;;;;;;8.98;5.40;;;12.90;83.30;;;;;;5109853;28;20031;-74
2023/01/07 01:20:14;;;;;;;9.15;6.03;;;12.90;84.00;;;;;;5116611;28;20448;-74
2023/01/07 01:22:41;;;;;;;10.10;6.00;;;12.90;83.20;;;;;;5115613;28;20027;-74
2023/01/07 01:25:07;;;;;;;12.27;6.13;;;12.90;83.20;;;;;;5114224;28;20035;-74
2023/01/07 01:27:34;;;;;;;9.23;5.57;;;12.90;83.20;;;;;;5112854;28;20272;-74
2023/01/07 01:30:01;;;;;;;10.27;5.53;;;12.90;83.10;;;;;;5111109;28;20447;-74
2023/01/07 01:32:27;;;;;;;8.85;5.10;;;12.90;83.10;;;;;;5098415;28;20024;-74
2023/01/07 01:34:53;;;;;;;9.32;5.63;;;12.90;83.10;;;;;;5111360;28;20377;-74
2023/01/07 01:37:19;;;;;;;10.95;5.65;;;12.90;83.10;;;;;;5115414;28;20062;-74
2023/01/07 01:39:45;;;;;;;9.82;5.20;;;12.90;83.00;;;;;;5088229;28;20024;-74
2023/01/07 01:42:17;;;;;;;8.35;5.15;;;12.80;83.00;;;;;;5103586;28;20463;-74
2023/01/07 01:44:54;;;;;;;8.63;5.00;;;12.80;83.00;;;;;;5109043;28;20105;-74
2023/01/07 01:47:37;;;;;;;9.27;5.32;;;12.90;83.00;;;;;;5099863;28;20028;-75
2023/01/07 01:50:07;;;;;;;10.07;5.07;;;12.90;82.90;;;;;;5089619;28;20444;-74
2023/01/07 01:52:44;;;;;;;9.48;5.60;;;12.90;82.90;;;;;;5112694;28;20065;-74
2023/01/07 01:55:12;;;;;;;8.15;4.90;;;12.80;82.80;;;;;;5088881;28;20035;-74
2023/01/07 01:57:38;;;;;;;9.32;4.97;;;12.90;82.80;;;;;;5113186;28;20034;-74
2023/01/07 02:00:06;;;;;;;7.68;4.43;;;12.90;82.80;;;;;;5113871;28;20047;-74
2023/01/07 02:02:58;;;;;;;7.97;4.32;;;12.90;82.70;;;;;;5116097;28;20031;-74
2023/01/07 02:05:28;;;;;;;7.28;4.43;;;12.90;82.60;;;;;;5104143;28;20512;-72
2023/01/07 02:07:54;;;;;;;8.20;4.95;;;12.90;83.30;;;;;;5117111;28;20019;-73
2023/01/07 02:10:22;;;;;;;7.43;4.53;;;12.80;82.70;;;;;;5097597;28;20073;-72
2023/01/07 02:12:56;;;;;;;7.97;4.80;;;12.90;82.70;;;;;;5098958;28;20119;-73
2023/01/07 02:15:31;;;;;;;9.55;4.43;;;12.90;82.60;;;;;;5112868;28;20111;-73
2023/01/07 02:18:25;;;;;;;10.50;3.88;;;12.80;82.50;;;;;;5116542;27;20435;-73
2023/01/07 02:21:03;;;;;;;9.60;4.68;;;12.80;82.40;;;;;;5113401;28;20340;-73
2023/01/07 02:23:49;;;;;;;7.57;4.28;;;12.80;82.50;;;;;;5115646;28;20356;-73
2023/01/07 02:26:37;;;;;;;7.80;4.15;;;12.80;82.50;;;;;;5112288;28;20034;-72
2023/01/07 02:29:30;;;;;;;9.52;4.35;;;12.80;82.50;;;;;;5113823;28;20027;-72
2023/01/07 02:32:18;;;;;;;7.22;4.40;;;12.80;82.40;;;;;;5098753;28;20039;-72
2023/01/07 02:35:14;;;;;;;6.82;3.83;;;12.80;82.40;;;;;;5108281;28;20035;-72
2023/01/07 02:38:01;;;;;;;8.80;4.07;;;12.70;82.30;;;;;;5114820;28;20035;-72
2023/01/07 02:41:03;;;;;;;10.20;4.30;;;12.80;82.50;;;;;;5116354;27;20115;-72
2023/01/07 02:43:29;;;;;;;8.65;4.47;;;12.80;82.50;;;;;;5080820;28;20123;-72
2023/01/07 02:46:10;;;;;;;7.53;4.22;;;12.70;82.40;;;;;;5098652;28;20036;-72
2023/01/07 02:48:38;;;;;;;12.13;4.07;;;12.80;82.40;;;;;;5081794;28;20048;-72
2023/01/07 02:51:04;;;;;;;9.48;4.85;;;12.80;82.30;;;;;;5093777;28;20111;-72
2023/01/07 02:53:30;;;;;;;9.13;4.47;;;12.80;82.30;;;;;;5115150;28;20088;-72
2023/01/07 02:56:16;;;;;;;8.88;3.80;;;12.80;82.30;;;;;;5100338;28;20039;-72
2023/01/07 02:58:59;;;;;;;8.27;4.32;;;12.80;82.30;;;;;;5120203;27;20467;-73
2023/01/07 03:01:46;;;;;;;7.28;4.20;;;12.70;82.30;;;;;;5084647;28;20508;-72
2023/01/07 03:04:19;;;;;;;7.38;3.75;;;12.70;82.20;;;;;;5091807;28;20031;-73
2023/01/07 03:06:53;;;;;;;9.35;4.68;;;12.70;82.20;;;;;;5113897;28;20047;-73
2023/01/07 03:09:43;;;;;;;11.20;4.55;;;12.70;82.30;;;;;;5113356;28;20027;-73
2023/01/07 03:12:24;;;;;;;7.30;3.80;;;12.70;82.20;;;;;;5108706;28;20046;-72
2023/01/07 03:15:01;;;;;;;6.43;3.37;;;12.70;82.20;;;;;;5112765;28;20363;-72
2023/01/07 03:17:33;;;;;;;9.43;4.35;;;12.70;82.20;;;;;;5103681;28;20354;-72
2023/01/07 03:20:00;;;;;;;9.93;3.92;;;12.70;82.10;;;;;;5107436;28;20024;-73
2023/01/07 03:22:30;;;;;;;8.50;4.25;;;12.70;82.10;;;;;;5115558;27;20023;-73
2023/01/07 03:24:57;;;;;;;8.20;4.05;;;12.70;82.10;;;;;;5113274;28;20027;-73
2023/01/07 03:27:27;;;;;;;7.90;4.32;;;12.70;82.70;;;;;;5113700;28;20032;-73
2023/01/07 03:29:54;;;;;;;6.60;3.55;;;12.70;82.10;;;;;;5108544;28;20322;-73
2023/01/07 03:32:26;;;;;;;9.15;4.22;;;12.70;82.10;;;;;;5106513;28;20023;-73
2023/01/07 03:34:52;;;;;;;9.40;4.45;;;12.70;82.00;;;;;;5114923;28;20027;-73
2023/01/07 03:37:22;;;;;;;7.25;3.67;;;12.70;82.00;;;;;;5109551;28;20020;-74
2023/01/07 03:39:49;;;;;;;9.57;3.85;;;12.70;82.00;;;;;;5110449;28;20114;-73
2023/01/07 03:42:38;;;;;;;7.78;3.60;;;12.70;82.00;;;;;;5081331;28;20147;-73
2023/01/07 03:45:12;;;;;;;7.03;3.80;;;12.70;82.00;;;;;;5128929;27;20061;-73
2023/01/07 03:47:44;;;;;;;8.20;4.53;;;12.70;82.00;;;;;;5102325;28;20052;-73
2023/01/07 03:50:10;;;;;;;6.70;3.60;;;12.70;82.60;;;;;;5128733;27;20029;-73
2023/01/07 03:52:39;;;;;;;6.82;3.38;;;12.70;82.00;;;;;;5083209;28;20024;-73
2023/01/07 03:55:06;;;;;;;8.07;3.70;;;12.70;82.00;;;;;;5113775;28;20028;-73
2023/01/07 03:57:32;;;;;;;7.78;4.00;;;12.70;81.90;;;;;;5102306;28;20073;-73
2023/01/07 04:00:00;;;;;;;8.15;3.40;;;12.60;81.90;;;;;;5108260;28;20065;-73
2023/01/07 04:02:27;;;;;;;7.50;3.97;;;12.70;81.90;;;;;;5108037;28;20082;-73
2023/01/07 04:04:53;;;;;;;8.52;3.53;;;12.70;81.90;;;;;;5115831;27;20047;-73
2023/01/07 04:07:20;;;;;;;7.20;3.30;;;12.60;81.80;;;;;;5108517;28;20028;-73
2023/01/07 04:09:48;;;;;;;7.50;4.03;;;12.60;81.90;;;;;;5113118;28;20047;-73
2023/01/07 04:12:14;;;;;;;6.80;3.67;;;12.60;81.80;;;;;;5111584;28;20027;-73
2023/01/07 04:14:40;;;;;;;7.22;3.55;;;12.60;81.90;;;;;;5112054;28;20482;-73
2023/01/07 04:17:06;;;;;;;8.27;4.20;;;12.60;81.90;;;;;;5108940;28;20055;-73
2023/01/07 04:19:32;;;;;;;9.50;3.92;;;12.50;81.90;;;;;;5111417;28;20450;-73
2023/01/07 04:21:58;;;;;;;6.40;3.30;;;12.60;81.90;;;;;;5096845;28;20055;-73
2023/01/07 04:24:23;;;;;;;7.35;4.13;;;12.60;81.90;;;;;;5110653;28;20032;-73
2023/01/07 04:26:49;;;;;;;7.57;3.47;;;12.50;81.80;;;;;;5088147;28;20093;-73
2023/01/07 04:29:16;;;;;;;6.55;3.30;;;12.50;81.80;;;;;;5091065;28;20015;-73
2023/01/07 04:31:42;;;;;;;6.35;3.40;;;12.50;81.90;;;;;;5118587;28;20099;-73
2023/01/07 04:34:08;;;;;;;9.02;3.78;;;12.50;81.80;;;;;;5115386;28;20026;-73
2023/01/07 04:36:34;;;;;;;5.93;3.13;;;12.50;81.80;;;;;;5117377;28;20031;-73
2023/01/07 04:39:01;;;;;;;6.95;3.15;;;12.50;81.80;;;;;;5112609;28;20054;-73
2023/01/07 04:41:28;;;;;;;6.88;3.22;;;12.50;81.80;;;;;;5100657;28;20123;-73
2023/01/07 04:43:53;;;;;;;7.03;3.22;;;12.50;81.90;;;;;;5093176;28;20115;-73
2023/01/07 04:46:19;;;;;;;7.30;3.38;;;12.50;81.80;;;;;;5118726;28;20027;-73
2023/01/07 04:48:45;;;;;;;8.43;3.60;;;12.50;81.90;;;;;;5094782;28;20028;-73
2023/01/07 04:51:11;;;;;;;6.53;3.10;;;12.40;81.80;;;;;;5094188;28;20344;-73
2023/01/07 04:53:37;;;;;;;8.50;3.40;;;12.40;81.80;;;;;;5115466;28;20015;-73
2023/01/07 04:56:05;;;;;;;6.72;3.15;;;12.40;81.80;;;;;;5102645;28;20034;-74
2023/01/07 04:58:31;;;;;;;7.07;3.08;;;12.40;81.80;;;;;;5112063;28;20107;-74
2023/01/07 05:00:58;;;;;;;6.50;3.10;;;12.40;81.80;;;;;;5109744;27;20034;-74
2023/01/07 05:03:26;;;;;;;6.30;3.28;;;12.40;81.80;;;;;;5121854;27;20491;-73
2023/01/07 05:05:52;;;;;;;6.60;3.25;;;12.40;81.80;;;;;;5092650;28;20052;-73
2023/01/07 05:08:20;;;;;;;5.75;2.95;;;12.40;81.70;;;;;;5117983;27;20023;-73
2023/01/07 05:10:51;;;;;;;7.95;3.30;;;12.40;81.70;;;;;;5103410;27;20046;-73
2023/01/07 05:13:18;;;;;;;8.15;3.58;;;12.40;81.70;;;;;;5115317;28;20019;-73
2023/01/07 05:15:45;;;;;;;6.55;3.17;;;12.40;81.70;;;;;;5102210;28;20373;-73
2023/01/07 05:18:12;;;;;;;6.82;3.20;;;12.40;81.70;;;;;;5110755;28;20327;-73
2023/01/07 05:20:38;;;;;;;6.05;2.85;;;12.40;81.70;;;;;;5111748;28;20024;-73
2023/01/07 05:23:05;;;;;;;6.25;2.88;;;12.40;81.70;;;;;;5114956;28;20039;-74
2023/01/07 05:25:33;;;;;;;6.70;3.28;;;12.40;81.60;;;;;;5088947;28;20028;-73
2023/01/07 05:27:59;;;;;;;6.97;3.03;;;12.40;81.70;;;;;;5128898;27;20024;-73
2023/01/07 05:30:27;;;;;;;6.88;2.95;;;12.40;81.60;;;;;;5095249;28;20072;-73
2023/01/07 05:32:53;;;;;;;8.20;3.10;;;12.40;81.60;;;;;;5113420;28;20024;-73
2023/01/07 05:35:20;;;;;;;6.40;2.78;;;12.40;81.60;;;;;;5101914;28;20024;-73
2023/01/07 05:37:46;;;;;;;5.63;2.78;;;12.40;81.50;;;;;;5099715;28;20015;-73
2023/01/07 05:40:12;;;;;;;5.28;2.53;;;12.50;81.50;;;;;;5115020;28;20016;-72
2023/01/07 05:42:38;;;;;;;5.00;2.50;;;12.50;81.50;;;;;;5124065;28;20019;-73
2023/01/07 05:45:04;;;;;;;6.38;2.58;;;12.50;81.50;;;;;;5103352;28;20024;-73
2023/01/07 05:47:30;;;;;;;6.07;2.53;;;12.50;81.50;;;;;;5084243;28;20046;-73
2023/01/07 05:49:56;;;;;;;7.32;3.00;;;12.50;81.50;;;;;;5116269;28;20459;-74
2023/01/07 05:52:22;;;;;;;5.85;2.60;;;12.50;81.50;;;;;;5113359;28;20059;-73
2023/01/07 05:54:47;;;;;;;5.90;2.22;;;12.50;81.50;;;;;;5112581;28;20106;-73
2023/01/07 05:57:13;;;;;;;7.00;2.88;;;12.50;81.50;;;;;;5113462;28;20072;-73
2023/01/07 05:59:39;;;;;;;5.22;2.47;;;12.50;81.40;;;;;;5097089;28;20430;-73
2023/01/07 06:02:04;;;;;;;6.60;2.78;;;12.50;81.50;;;;;;5111044;28;20032;-74
2023/01/07 06:04:30;;;;;;;7.47;3.00;;;12.50;81.40;;;;;;5113920;28;20092;-74
2023/01/07 06:06:56;;;;;;;8.15;2.75;;;12.50;81.30;;;;;;5113621;28;20375;-74
2023/01/07 06:09:22;;;;;;;6.88;2.70;;;12.50;81.30;;;;;;5116604;28;20073;-73
2023/01/07 06:11:48;;;;;;;6.20;2.90;;;12.50;81.20;;;;;;5110539;28;20084;-74
2023/01/07 06:14:13;;;;;;;6.45;2.78;;;12.50;81.30;;;;;;5116084;28;20023;-73
2023/01/07 06:16:39;;;;;;;9.88;3.00;;;12.50;81.20;;;;;;5111883;28;20039;-75
2023/01/07 06:19:05;;;;;;;6.10;2.40;;;12.50;81.80;;;;;;5117739;28;20039;-74
2023/01/07 06:21:31;;;;;;;6.00;2.50;;;12.50;81.10;;;;;;5113553;28;20027;-73
2023/01/07 06:23:57;;;;;;;6.57;2.90;;;12.50;81.10;;;;;;5114095;28;20024;-73
2023/01/07 06:26:23;;;;;;;6.38;2.97;;;12.50;81.10;;;;;;5113984;28;20111;-75
2023/01/07 06:28:50;;;;;;;5.53;2.70;;;12.50;81.00;;;;;;5099392;28;20081;-74
2023/01/07 06:31:16;;;;;;;6.35;2.45;;;12.50;80.90;;;;;;5116914;28;20108;-74
2023/01/07 06:33:42;;;;;;;7.07;3.08;;;12.50;80.90;;;;;;5112350;27;20073;-73
2023/01/07 06:36:08;;;;;;;5.75;2.45;;;12.50;80.80;;;;;;5109301;28;20452;-74
2023/01/07 06:38:33;;;;;;;4.90;2.47;;;12.50;80.70;;;;;;5110160;28;20360;-73
2023/01/07 06:41:00;;;;;;;6.28;2.58;;;12.50;80.70;;;;;;5109345;28;20023;-75
2023/01/07 06:43:27;;;;;;;5.93;2.72;;;12.50;80.60;;;;;;5106097;28;20069;-75
2023/01/07 06:45:53;;;;;;;6.55;2.53;;;12.50;81.10;;;;;;5104159;28;20028;-74
2023/01/07 06:48:20;;;;;;;5.68;2.55;;;12.50;80.40;;;;;;5105742;28;20031;-73
2023/01/07 06:50:46;;;;;;;5.93;2.50;;;12.50;80.40;;;;;;5115725;28;20114;-74
2023/01/07 06:53:12;;;;;;;6.20;2.35;;;12.50;80.30;;;;;;5113182;28;20081;-74
2023/01/07 06:55:37;;;;;;;3.97;2.08;;;12.50;80.20;;;;;;5113969;28;20659;-74
2023/01/07 06:58:03;;;;;;;5.20;2.42;;;12.50;80.10;;;;;;5107847;27;20030;-75
2023/01/07 07:00:29;;;;;;;4.28;2.08;;;12.50;80.00;;;;;;5108969;28;20026;-74
2023/01/07 07:02:55;;;;;;;4.60;2.10;;;12.60;79.90;;;;;;5110723;28;20063;-74
2023/01/07 07:05:20;;;;;;;5.40;2.15;;;12.60;79.80;;;;;;5114698;28;20024;-74
2023/01/07 07:07:46;;;;;;;5.15;2.20;;;12.60;79.60;;;;;;5116368;28;20081;-74
2023/01/07 07:10:12;;;;;;;6.15;2.20;;;12.60;79.50;;;;;;5114889;28;20024;-74
2023/01/07 07:12:38;;;;;;;5.90;1.83;;;12.60;79.40;;;;;;5114418;28;20023;-73
2023/01/07 07:15:06;;;;;;;4.78;2.08;;;12.60;79.30;;;;;;5094495;28;20032;-73
2023/01/07 07:17:31;;;;;;;3.95;1.80;;;12.60;79.20;;;;;;5123186;27;20410;-73
2023/01/07 07:19:57;;;;;;;5.25;2.15;;;12.60;79.10;;;;;;5113919;28;20031;-74
2023/01/07 07:22:23;;;;;;;3.63;1.80;;;12.60;79.00;;;;;;5115107;28;20031;-74
2023/01/07 07:24:49;;;;;;;6.47;2.05;;;12.60;78.80;;;;;;5114823;28;20070;-74
2023/01/07 07:27:15;;;;;;;5.13;1.90;;;12.60;78.70;;;;;;5115525;28;20127;-73
2023/01/07 07:29:41;;;;;;;4.80;2.15;;;12.60;78.70;;;;;;5104273;28;20107;-73
2023/01/07 07:32:07;;;;;;;5.03;2.10;;;12.60;78.50;;;;;;5111872;28;20116;-74
2023/01/07 07:34:33;;;;;;;4.75;1.90;;;12.60;79.10;;;;;;5111252;28;20031;-73
2023/01/07 07:37:00;;;;;;;4.82;2.10;;;12.60;78.30;;;;;;5085605;28;20027;-74
2023/01/07 07:39:25;;;;;;;5.20;1.95;;;12.60;78.10;;;;;;5111111;28;20039;-74
2023/01/07 07:41:52;;;;;;;4.82;1.83;;;12.60;78.00;;;;;;5102411;28;20352;-74
2023/01/07 07:44:17;;;;;;;4.75;1.77;;;12.60;78.10;;;;;;5113262;28;20107;-74
2023/01/07 07:46:43;;;;;;;4.55;1.73;;;12.60;77.90;;;;;;5113735;28;20496;-74
2023/01/07 07:49:11;;;;;;;3.63;1.58;;;12.60;77.90;;;;;;5104451;28;20518;-74
2023/01/07 07:51:37;;;;;;;4.05;1.77;;;12.60;77.70;;;;;;5110102;28;20024;-73
2023/01/07 07:54:02;;;;;;;3.40;1.85;;;12.60;77.60;;;;;;5112732;28;20378;-73
2023/01/07 07:56:28;;;;;;;5.30;1.90;;;12.60;77.40;;;;;;5114586;28;20081;-72
2023/01/07 07:58:54;;;;;;;4.85;2.08;;;12.60;77.30;;;;;;5113715;28;20044;-72
2023/01/07 08:01:21;;;;;;;3.45;1.67;;;12.60;77.30;;;;;;5115789;28;20028;-72
2023/01/07 08:03:46;;;;;;;3.63;1.63;;;12.60;77.10;;;;;;5111580;28;20119;-73
2023/01/07 08:06:12;;;;;;;4.57;1.75;;;12.60;77.00;;;;;;5114926;28;20114;-73
2023/01/07 08:08:38;;;;;;;3.70;1.70;;;12.60;76.90;;;;;;5114863;28;20050;-73
2023/01/07 08:11:04;;;;;;;3.85;1.70;;;12.60;76.80;;;;;;5113893;28;20392;-71
2023/01/07 08:13:30;;;;;;;5.38;2.00;;;12.60;76.70;;;;;;5108455;28;20028;-71
2023/01/07 08:15:56;;;;;;;3.20;1.50;;;12.60;76.60;;;;;;5104693;28;20456;-71
2023/01/07 08:18:22;;;;;;;4.05;1.92;;;12.70;76.60;;;;;;5114077;28;20066;-72
2023/01/07 08:20:49;;;;;;;5.85;2.13;;;12.60;76.50;;;;;;5092822;28;20445;-72
2023/01/07 08:23:15;;;;;;;4.28;1.83;;;12.70;76.40;;;;;;5115170;28;20027;-72
2023/01/07 08:25:41;;;;;;;3.60;1.50;;;12.70;76.30;;;;;;5114566;28;20028;-72
2023/01/07 08:28:09;;;;;;;4.18;1.75;;;12.60;76.30;;;;;;5114125;28;20027;-71
2023/01/07 08:30:35;;;;;;;4.70;2.25;;;12.60;76.30;;;;;;5092973;28;20024;-72
2023/01/07 08:33:04;;;;;;;4.85;1.83;;;12.60;76.20;;;;;;5110975;28;20023;-73
2023/01/07 08:35:30;;;;;;;5.55;2.13;;;12.70;76.10;;;;;;5113788;28;20035;-72
2023/01/07 08:38:01;;;;;;;4.60;2.08;;;12.70;76.10;;;;;;5112298;28;20406;-72
2023/01/07 08:40:27;;;;;;;8.30;3.43;;;12.70;75.90;;;;;;5101198;28;20081;-72
2023/01/07 08:42:56;;;;;;;8.20;3.53;;;12.60;75.80;;;;;;5099637;28;20028;-72
2023/01/07 08:45:21;;;;;;;6.57;2.70;;;12.60;75.70;;;;;;5107301;28;20114;-73
2023/01/07 08:47:47;;;;;;;6.07;2.40;;;12.70;75.80;;;;;;5109205;28;20043;-72
2023/01/07 08:50:13;;;;;;;4.35;2.00;;;12.60;75.70;;;;;;5091424;28;20401;-72
2023/01/07 08:52:39;;;;;;;5.75;2.13;;;12.70;75.60;;;;;;5110688;28;20030;-72
2023/01/07 08:55:05;;;;;;;5.88;2.00;;;12.70;75.60;;;;;;5110456;28;20032;-72
2023/01/07 08:57:31;;;;;;;4.85;2.00;;;12.70;75.50;;;;;;5101134;28;20039;-73
2023/01/07 08:59:57;;;;;;;4.93;2.05;;;12.70;75.40;;;;;;5097010;28;20036;-72
2023/01/07 09:02:23;;;;;;;5.15;2.20;;;12.70;75.30;;;;;;5110744;28;20027;-72
2023/01/07 09:04:48;;;;;;;3.58;1.73;;;12.70;75.30;;;;;;5113641;28;20061;-72
2023/01/07 09:07:14;;;;;;;4.00;2.00;;;12.80;75.50;;;;;;5114234;28;20045;-73
2023/01/07 09:09:41;;;;;;;4.55;2.25;;;12.80;75.40;;;;;;5094979;28;20024;-73
2023/01/07 09:12:10;;;;;;;4.50;1.80;;;12.80;75.20;;;;;;5113396;28;20431;-73
2023/01/07 09:14:36;;;;;;;4.00;1.83;;;12.80;75.10;;;;;;5100497;28;20031;-73
2023/01/07 09:17:01;;;;;;;5.40;2.13;;;12.80;74.90;;;;;;5098203;28;20044;-73
2023/01/07 09:19:27;;;;;;;4.95;2.38;;;12.80;74.80;;;;;;5110616;27;20432;-74
2023/01/07 09:21:53;;;;;;;5.88;2.00;;;12.80;74.70;;;;;;5109293;28;20035;-73
2023/01/07 09:24:19;;;;;;;3.88;1.70;;;12.80;74.60;;;;;;5117021;28;20028;-72
2023/01/07 09:26:44;;;;;;;4.60;1.83;;;12.80;74.40;;;;;;5115740;28;20038;-72
2023/01/07 09:29:10;;;;;;;3.70;1.77;;;12.80;74.40;;;;;;5096869;28;20032;-73
2023/01/07 09:31:36;;;;;;;3.20;1.65;;;12.90;74.40;;;;;;5111633;28;20024;-73
2023/01/07 09:34:02;;;;;;;3.75;1.80;;;12.90;74.30;;;;;;5099146;28;20081;-72
2023/01/07 09:36:27;;;;;;;5.40;1.85;;;12.90;74.30;;;;;;5102822;28;20031;-73
2023/01/07 09:38:53;;;;;;;4.40;2.00;;;12.80;74.10;;;;;;5116194;28;20418;-72
2023/01/07 09:41:53;;;;;;;6.13;1.92;;;12.90;74.00;;;;;;5102182;28;20063;-73
2023/01/07 09:44:30;;;;;;;7.00;3.40;;;12.80;73.90;;;;;;5115694;28;20023;-73
2023/01/07 09:46:57;;;;;;;9.35;3.70;;;12.90;73.90;;;;;;5102331;28;20027;-71
2023/01/07 09:49:28;;;;;;;6.15;3.10;;;12.80;73.80;;;;;;5105733;28;20016;-70
2023/01/07 09:52:04;;;;;;;6.05;2.35;;;12.90;73.80;;;;;;5114410;28;20051;-71
2023/01/07 09:54:34;;;;;;;4.95;2.30;;;12.90;73.60;;;;;;5112029;28;20023;-70
2023/01/07 09:57:00;;;;;;;6.55;2.58;;;12.90;73.50;;;;;;5116632;28;20040;-71
2023/01/07 09:59:26;;;;;;;5.80;2.22;;;12.90;73.50;;;;;;5109280;28;20024;-71
2023/01/07 10:02:06;;;;;;;5.90;2.20;;;12.90;73.40;;;;;;5117508;28;20019;-70
2023/01/07 10:04:56;;;;;;;4.43;1.92;;;13.00;73.80;;;;;;5101916;28;20115;-71
2023/01/07 10:07:36;;;;;;;3.85;1.63;;;13.00;73.00;;;;;;5111709;28;20030;-70
2023/01/07 10:10:17;;;;;;;3.33;1.65;;;13.00;73.00;;;;;;5100592;28;20344;-71
2023/01/07 10:13:01;;;;;;;4.03;1.48;;;13.00;72.70;;;;;;5117065;28;20059;-71
2023/01/07 10:15:40;;;;;;;4.35;1.75;;;13.00;72.80;;;;;;5104794;28;20020;-70
2023/01/07 10:18:31;;;;;;;4.70;1.88;;;13.00;72.70;;;;;;5117298;28;20116;-70
2023/01/07 10:21:30;;;;;;;2.70;1.33;;;13.00;72.40;;;;;;5105508;28;20106;-71
2023/01/07 10:24:06;;;;;;;4.25;1.70;;;13.10;72.30;;;;;;5115090;28;20020;-70
2023/01/07 10:26:40;;;;;;;3.92;1.35;;;13.10;72.20;;;;;;5116248;28;20448;-70
2023/01/07 10:29:10;;;;;;;3.10;1.45;;;13.10;72.00;;;;;;5115789;28;20035;-70
2023/01/07 10:31:36;;;;;;;2.80;1.27;;;13.10;71.90;;;;;;5105847;28;20036;-70
2023/01/07 10:34:05;;;;;;;6.07;1.70;;;13.10;71.80;;;;;;5113711;28;20107;-72
2023/01/07 10:36:37;;;;;;;2.95;1.40;;;13.10;71.60;;;;;;5107555;28;20149;-72
2023/01/07 10:39:23;;;;;;;3.97;1.40;;;13.10;71.40;;;;;;5116511;28;20044;-72
2023/01/07 10:42:08;;;;;;;2.97;1.40;;;13.10;71.10;;;;;;5103556;28;20027;-71
2023/01/07 10:44:44;;;;;;;4.65;1.23;;;13.20;71.00;;;;;;5094166;28;20024;-72
2023/01/07 10:47:32;;;;;;;3.17;1.20;;;13.20;71.00;;;;;;5106552;28;20036;-71
2023/01/07 10:50:01;;;;;;;2.92;1.42;;;13.20;70.70;;;;;;5106055;28;20460;-72
2023/01/07 10:52:45;;;;;;;2.90;1.30;;;13.30;70.70;;;;;;5099542;28;20035;-72
2023/01/07 10:55:22;;;;;;;1.40;1.00;;;13.50;70.30;;;;;;5113479;28;20157;-71
2023/01/07 10:57:48;;;;;;;2.30;1.20;;;13.80;69.70;;;;;;5115651;28;20039;-71
2023/01/07 11:00:17;;;;;;;3.05;1.27;;;14.00;69.40;;;;;;5115203;28;20416;-72
2023/01/07 11:02:52;;;;;;;3.70;1.40;;;14.20;68.90;;;;;;5115344;28;20096;-72
2023/01/07 11:05:20;;;;;;;5.00;1.80;;;14.30;68.20;;;;;;5115466;28;20080;-72
2023/01/07 11:07:58;;;;;;;4.22;1.67;;;14.40;68.20;;;;;;5095521;28;20020;-72
2023/01/07 11:10:27;;;;;;;3.53;1.50;;;14.50;67.80;;;;;;5114325;28;20305;-71
2023/01/07 11:13:05;;;;;;;4.28;1.50;;;14.50;67.70;;;;;;5090193;28;20016;-72
2023/01/07 11:15:40;;;;;;;4.68;1.38;;;14.60;67.40;;;;;;5113941;28;20021;-71
2023/01/07 11:18:37;;;;;;;3.45;1.55;;;14.60;67.10;;;;;;5108723;28;20040;-72
2023/01/07 11:21:03;;;;;;;2.60;1.30;;;14.70;66.80;;;;;;5114772;28;20073;-72
2023/01/07 11:23:34;;;;;;;2.10;1.20;;;14.80;66.80;;;;;;5096613;28;20356;-72
2023/01/07 11:26:23;;;;;;;3.25;1.42;;;14.80;66.40;;;;;;5114813;28;20031;-72
2023/01/07 11:28:55;;;;;;;3.28;1.40;;;14.80;66.20;;;;;;5102385;28;20098;-73
2023/01/07 11:31:42;;;;;;;3.55;1.50;;;14.70;66.20;;;;;;5111577;28;20028;-73
2023/01/07 11:34:36;;;;;;;2.65;1.20;;;14.60;66.20;;;;;;5108266;28;20028;-73
2023/01/07 11:37:03;;;;;;;2.72;1.20;;;14.50;66.20;;;;;;5088564;28;20099;-71
2023/01/07 11:39:32;;;;;;;2.28;1.20;;;14.40;66.30;;;;;;5112424;28;20036;-71
2023/01/07 11:42:37;;;;;;;3.20;1.15;;;14.40;66.20;;;;;;5088909;28;20042;-72
2023/01/07 11:44:46;;;;;;;3.20;1.15;;;14.40;66.10;;;;;;5114304;28;20031;-72
2023/01/07 11:47:17;;;;;;;3.22;1.50;;;14.40;66.10;;;;;;5110763;28;20031;-71
2023/01/07 11:49:44;;;;;;;3.38;1.60;;;14.40;65.80;;;;;;5114221;28;20433;-70
2023/01/07 11:52:20;;;;;;;2.67;1.10;;;14.40;65.70;;;;;;5113021;28;20035;-71
2023/01/07 11:54:50;;;;;;;3.35;1.40;;;14.30;65.50;;;;;;5108410;28;20106;-71
2023/01/07 11:57:26;;;;;;;3.17;1.33;;;14.30;65.50;;;;;;5104550;28;20073;-70
2023/01/07 12:00:12;;;;;;;3.65;1.20;;;14.30;65.40;;;;;;5098980;28;20027;-71
2023/01/07 12:02:39;;;;;;;4.43;1.48;;;14.30;65.20;;;;;;5105150;28;20027;-71
2023/01/07 12:05:26;;;;;;;3.63;1.58;;;14.30;65.30;;;;;;5113554;28;20036;-70
2023/01/07 12:07:54;;;;;;;5.85;2.33;;;14.20;65.00;;;;;;5110804;28;20027;-71
2023/01/07 12:10:24;;;;;;;5.38;2.00;;;14.20;64.90;;;;;;5113590;28;20128;-71
2023/01/07 12:12:50;;;;;;;8.00;1.90;;;14.20;64.80;;;;;;5105341;28;20023;-71
2023/01/07 12:15:20;;;;;;;3.92;1.70;;;14.20;64.80;;;;;;5110719;28;20076;-71
2023/01/07 12:17:53;;;;;;;3.17;1.42;;;14.10;64.60;;;;;;5107713;28;20483;-71
2023/01/07 12:20:34;;;;;;;3.28;1.50;;;14.10;64.60;;;;;;5103408;28;20116;-71
2023/01/07 12:23:00;;;;;;;4.38;1.60;;;14.10;64.50;;;;;;5094760;28;20051;-71
2023/01/07 12:25:45;;;;;;;4.00;1.55;;;14.10;64.60;;;;;;5113794;28;20110;-72
2023/01/07 12:28:15;;;;;;;4.85;1.40;;;14.00;64.30;;;;;;5113110;28;20035;-72
2023/01/07 12:31:12;;;;;;;2.88;1.20;;;14.00;64.30;;;;;;5109648;28;20107;-72
2023/01/07 12:34:38;;;;;;;3.92;1.50;;;13.90;64.30;;;;;;5108957;28;20035;-72
2023/01/07 12:37:22;;;;;;;2.92;1.38;;;13.90;64.30;;;;;;5069255;28;20036;-72
2023/01/07 12:39:54;;;;;;;3.33;1.42;;;13.90;64.40;;;;;;5095782;28;20055;-72
2023/01/07 12:42:25;;;;;;;2.35;1.40;;;13.90;64.40;;;;;;5112428;28;20032;-72
2023/01/07 12:44:56;;;;;;;3.88;1.50;;;13.90;64.40;;;;;;5098345;28;20020;-72
2023/01/07 12:47:40;;;;;;;3.03;1.40;;;13.90;64.30;;;;;;5106712;28;20039;-74
2023/01/07 12:50:31;;;;;;;4.97;1.67;;;13.80;64.10;;;;;;5106815;28;20035;-72
2023/01/07 12:52:58;;;;;;;5.70;1.90;;;13.90;64.10;;;;;;5102558;27;20022;-72
2023/01/07 12:55:34;;;;;;;5.18;1.88;;;13.80;64.10;;;;;;5090672;28;20119;-73
2023/01/07 12:58:43;;;;;;;3.72;1.40;;;13.80;64.00;;;;;;5127079;27;20348;-73
2023/01/07 13:01:30;;;;;;;3.72;1.67;;;13.80;63.90;;;;;;5103910;28;20047;-76
2023/01/07 13:04:02;;;;;;;4.90;1.67;;;13.80;64.00;;;;;;5107962;28;20031;-74
2023/01/07 13:06:56;;;;;;;4.45;1.90;;;13.80;64.00;;;;;;5101957;28;20028;-74